Time;durP1;ratioP1;P1;durP2;ratioP2;P2;SDS_P1;SDS_P2;PMS_P1;PMS_P2;Temp;Humidity;BMP_temperature;BMP_pressure;BME280_temperature;BME280_humidity;BME280_pressure;Samples;Min_cycle;Max_cycle;Signal;HPM_P1;HPM_P2
2023/03/24 00:01:30;;;;;;;3.05;1.10;;;14.30;99.90;;;14.44;100.00;99639.00;5146283;28;20089;-71
2023/03/24 00:04:03;;;;;;;1.48;0.80;;;14.30;99.90;;;14.45;100.00;99632.91;5146292;28;20377;-71
2023/03/24 00:06:37;;;;;;;1.40;1.00;;;14.30;99.90;;;14.43;100.00;99634.66;5145688;28;20102;-71
2023/03/24 00:09:09;;;;;;;1.10;0.90;;;14.30;99.90;;;14.44;100.00;99631.16;5146138;28;20062;-71
2023/03/24 00:11:41;;;;;;;1.92;0.80;;;14.30;99.90;;;14.44;100.00;99624.16;5144541;28;20101;-71
2023/03/24 00:14:14;;;;;;;1.15;0.93;;;14.30;99.90;;;14.46;100.00;99624.16;5144871;28;20055;-73
2023/03/24 00:16:48;;;;;;;1.70;0.90;;;14.30;99.90;;;14.46;100.00;99613.66;5136857;28;20053;-72
2023/03/24 00:19:21;;;;;;;1.40;0.75;;;14.30;99.90;;;14.47;100.00;99604.94;5160321;28;20054;-70
2023/03/24 00:21:55;;;;;;;1.50;1.00;;;14.30;99.90;;;14.47;100.00;99603.19;5146148;28;20050;-72
2023/03/24 00:24:28;;;;;;;1.48;1.00;;;14.30;99.90;;;14.47;100.00;99597.97;5145434;28;20045;-72
2023/03/24 00:27:02;;;;;;;3.78;1.27;;;14.30;99.90;;;14.45;100.00;99590.94;5145423;28;20043;-72
2023/03/24 00:29:35;;;;;;;1.50;1.02;;;14.30;99.90;;;14.44;100.00;99589.19;5145589;28;20137;-71
2023/03/24 00:32:08;;;;;;;1.52;1.00;;;14.30;99.90;;;14.45;100.00;99583.09;5145623;28;20523;-72
2023/03/24 00:34:42;;;;;;;2.17;1.08;;;14.30;99.90;;;14.47;100.00;99576.13;5144131;28;20112;-71
2023/03/24 00:37:15;;;;;;;3.30;1.25;;;14.30;99.90;;;14.50;100.00;99578.75;5143840;28;20086;-71
2023/03/24 00:39:49;;;;;;;1.83;1.17;;;14.30;99.90;;;14.48;100.00;99580.50;5138097;28;20379;-72
2023/03/24 00:42:23;;;;;;;2.20;1.00;;;14.30;99.90;;;14.48;100.00;99575.25;5143957;28;20077;-72
2023/03/24 00:44:56;;;;;;;2.80;1.35;;;14.30;99.90;;;14.48;100.00;99564.78;5145570;28;20067;-72
2023/03/24 00:47:28;;;;;;;1.67;1.20;;;14.30;99.90;;;14.47;100.00;99557.75;5145072;28;20039;-72
2023/03/24 00:50:00;;;;;;;2.45;1.33;;;14.30;99.90;;;14.48;100.00;99560.41;5160222;28;20035;-72
2023/03/24 00:52:34;;;;;;;1.20;0.80;;;14.30;99.90;;;14.47;100.00;99565.63;5143527;28;20105;-71
2023/03/24 00:55:07;;;;;;;2.63;1.27;;;14.30;99.90;;;14.49;100.00;99550.78;5145231;28;20388;-72
2023/03/24 00:57:40;;;;;;;1.15;1.00;;;14.30;99.90;;;14.48;100.00;99555.16;5145177;28;20045;-72
2023/03/24 01:00:15;;;;;;;1.42;1.05;;;14.30;99.90;;;14.48;100.00;99552.53;5145195;28;20042;-72
2023/03/24 01:02:52;;;;;;;2.17;1.00;;;14.30;99.90;;;14.49;100.00;99548.16;5138104;28;20605;-72
2023/03/24 01:05:26;;;;;;;2.50;1.30;;;14.30;99.90;;;14.50;100.00;99558.66;5143528;28;20113;-71
2023/03/24 01:08:02;;;;;;;1.40;1.23;;;14.30;99.90;;;14.57;100.00;99549.91;5143705;28;20046;-72
2023/03/24 01:10:48;;;;;;;2.10;1.10;;;14.40;99.90;;;14.59;100.00;99542.03;5143488;28;20054;-71
2023/03/24 01:13:24;;;;;;;1.60;1.17;;;14.30;99.90;;;14.57;100.00;99543.78;5144836;28;20050;-72
2023/03/24 01:15:58;;;;;;;1.58;1.15;;;14.40;99.90;;;14.56;100.00;99536.78;5144756;28;20389;-72
2023/03/24 01:18:30;;;;;;;;;;;14.30;99.90;;;14.58;100.00;99535.91;5144397;28;20043;-71
2023/03/24 01:21:04;;;;;;;3.90;1.15;;;14.40;99.90;;;14.60;100.00;99539.38;5143059;28;19922;-71
2023/03/24 01:23:40;;;;;;;2.75;1.60;;;14.40;99.90;;;14.61;100.00;99537.66;5144348;28;20078;-72
2023/03/24 01:26:13;;;;;;;1.95;1.10;;;14.40;99.90;;;14.58;100.00;99535.03;5144507;28;20043;-72
2023/03/24 01:28:45;;;;;;;1.77;1.20;;;14.40;99.90;;;14.57;100.00;99534.16;5151648;28;20047;-72
2023/03/24 01:31:18;;;;;;;1.85;1.10;;;14.40;99.90;;;14.62;100.00;99536.78;5143079;28;20050;-71
2023/03/24 01:33:50;;;;;;;2.42;1.48;;;14.40;99.90;;;14.66;100.00;99528.88;5143256;28;20051;-72
2023/03/24 01:36:23;;;;;;;2.22;1.25;;;14.40;99.90;;;14.58;100.00;99521.91;5143052;28;20137;-72
2023/03/24 01:38:57;;;;;;;3.05;1.40;;;14.40;99.90;;;14.53;100.00;99519.28;5143086;28;20061;-71
2023/03/24 01:41:34;;;;;;;3.05;1.38;;;14.40;99.90;;;14.52;100.00;99514.06;5143067;28;20098;-72
2023/03/24 01:44:31;;;;;;;2.70;1.40;;;14.40;99.90;;;14.48;100.00;99510.59;5143142;28;20112;-71
2023/03/24 01:47:07;;;;;;;2.38;1.30;;;14.40;99.90;;;14.48;100.00;99512.34;5138737;28;20439;-71
2023/03/24 01:49:45;;;;;;;1.73;1.15;;;14.30;99.90;;;14.47;100.00;99515.81;5142031;28;20491;-73
2023/03/24 01:52:22;;;;;;;2.17;1.33;;;14.30;99.90;;;14.45;100.00;99501.81;5142985;28;20046;-71
2023/03/24 01:55:00;;;;;;;3.25;1.55;;;14.30;99.90;;;14.44;100.00;99500.06;5143033;28;20043;-72
2023/03/24 01:57:38;;;;;;;2.30;1.45;;;14.30;99.90;;;14.40;100.00;99494.81;5142573;28;20078;-72
2023/03/24 02:00:15;;;;;;;2.00;1.30;;;14.20;99.90;;;14.39;100.00;99487.81;5142541;28;20059;-72
2023/03/24 02:03:17;;;;;;;2.65;1.60;;;14.20;99.90;;;14.36;100.00;99481.72;5136535;28;20539;-71
2023/03/24 02:05:57;;;;;;;2.30;1.25;;;14.20;99.90;;;14.32;100.00;99465.13;5137216;28;20035;-71
2023/03/24 02:08:34;;;;;;;;;;;14.20;99.90;;;14.27;100.00;99459.00;5142715;28;20125;-71
2023/03/24 02:11:08;;;;;;;3.20;1.40;;;14.20;99.90;;;14.26;100.00;99456.41;5143035;28;19922;-72
2023/03/24 02:14:01;;;;;;;2.95;1.50;;;14.10;99.90;;;14.24;100.00;99448.53;5137737;28;20055;-72
2023/03/24 02:16:57;;;;;;;1.83;1.15;;;14.10;99.90;;;14.24;100.00;99440.69;5144035;28;20082;-72
2023/03/24 02:19:59;;;;;;;2.20;1.15;;;14.10;99.90;;;14.25;100.00;99431.94;5142685;28;20440;-72
2023/03/24 02:23:28;;;;;;;3.38;1.33;;;14.10;99.90;;;14.20;100.00;99427.56;5142389;28;20049;-72
2023/03/24 02:26:38;;;;;;;2.05;1.40;;;14.10;99.90;;;14.17;100.00;99427.59;5138250;28;20365;-72
2023/03/24 02:30:09;;;;;;;2.13;1.60;;;14.10;99.90;;;14.15;100.00;99419.75;5138881;28;20043;-72
2023/03/24 02:33:21;;;;;;;2.67;1.27;;;14.00;99.90;;;14.15;100.00;99414.50;5129014;28;20046;-72
2023/03/24 02:36:35;;;;;;;1.98;1.15;;;14.00;99.90;;;14.16;100.00;99412.75;5136495;28;20411;-72
2023/03/24 02:39:38;;;;;;;1.77;1.30;;;14.00;99.90;;;14.18;100.00;99414.47;5158432;28;20145;-71
2023/03/24 02:42:25;;;;;;;2.25;1.17;;;14.00;99.90;;;14.19;100.00;99410.09;5143482;28;20051;-72
2023/03/24 02:45:12;;;;;;;2.65;1.48;;;14.00;99.90;;;14.18;100.00;99398.75;5136016;28;20057;-72
2023/03/24 02:47:59;;;;;;;2.00;1.30;;;14.00;99.90;;;14.21;100.00;99400.50;5143444;28;20038;-72
2023/03/24 02:50:39;;;;;;;2.42;1.73;;;14.00;99.90;;;14.23;100.00;99398.75;5141808;28;20146;-72
2023/03/24 02:53:19;;;;;;;2.55;1.35;;;14.10;99.90;;;14.20;100.00;99394.38;5141922;28;20047;-73
2023/03/24 02:56:21;;;;;;;2.10;1.58;;;14.00;99.90;;;14.19;100.00;99405.75;5138735;28;20057;-72
2023/03/24 02:59:03;;;;;;;2.50;1.67;;;14.10;99.90;;;14.21;100.00;99397.88;5158609;28;20050;-72
2023/03/24 03:01:42;;;;;;;;;;;14.10;99.90;;;14.21;100.00;99398.75;5142244;28;20106;-71
2023/03/24 03:04:33;;;;;;;2.95;1.55;;;14.10;99.90;;;14.20;100.00;99406.59;5141582;28;19926;-72
2023/03/24 03:07:08;;;;;;;2.65;1.33;;;14.00;99.90;;;14.22;100.00;99404.88;5141828;28;20551;-72
2023/03/24 03:09:47;;;;;;;2.72;1.48;;;14.10;99.90;;;14.21;100.00;99406.59;5142722;28;20063;-71
2023/03/24 03:12:25;;;;;;;2.33;1.40;;;14.00;99.90;;;14.23;100.00;99404.00;5157926;28;20051;-72
2023/03/24 03:15:03;;;;;;;2.60;1.42;;;14.10;99.90;;;14.26;100.00;99409.22;5141910;28;20129;-72
2023/03/24 03:17:42;;;;;;;2.38;1.48;;;14.10;99.90;;;14.26;100.00;99404.84;5141727;28;20047;-71
2023/03/24 03:20:19;;;;;;;2.42;1.25;;;14.10;99.90;;;14.28;100.00;99403.13;5165169;23;20026;-81
2023/03/24 03:22:57;;;;;;;1.92;1.30;;;14.10;99.90;;;14.32;100.00;99391.72;5152515;28;20039;-82
2023/03/24 03:25:35;;;;;;;2.13;1.20;;;14.10;99.90;;;14.39;100.00;99398.69;5153379;28;20042;-81
2023/03/24 03:28:12;;;;;;;2.33;1.52;;;14.20;99.90;;;14.45;100.00;99395.19;5151079;28;20077;-82
2023/03/24 03:30:51;;;;;;;2.25;1.52;;;14.20;99.90;;;14.54;100.00;99400.47;5141124;28;20035;-82
2023/03/24 03:33:29;;;;;;;2.92;1.50;;;14.30;99.90;;;14.56;100.00;99400.44;5155884;28;20051;-82
2023/03/24 03:36:07;;;;;;;2.85;1.70;;;14.30;99.90;;;14.57;100.00;99394.31;5142313;28;20079;-84
2023/03/24 03:38:47;;;;;;;3.47;1.63;;;14.30;99.90;;;14.61;100.00;99393.44;5157598;28;20358;-82
2023/03/24 03:41:20;;;;;;;4.60;2.75;;;14.30;99.90;;;14.63;100.00;99399.53;5143440;28;20038;-82
2023/03/24 03:43:55;;;;;;;2.10;1.80;;;14.40;99.90;;;14.73;100.00;99393.38;5147948;28;20030;-82
2023/03/24 03:46:28;;;;;;;3.17;2.00;;;14.50;99.90;;;14.69;100.00;99390.78;5162494;28;20603;-82
2023/03/24 03:49:02;;;;;;;3.80;1.75;;;14.50;99.90;;;14.66;100.00;99387.28;5155688;28;20444;-82
2023/03/24 03:51:35;;;;;;;3.83;1.90;;;14.50;99.90;;;14.64;100.00;99393.41;5163763;28;20054;-82
2023/03/24 03:54:11;;;;;;;2.05;1.67;;;14.40;99.90;;;14.70;100.00;99397.78;5151288;28;20058;-82
2023/03/24 03:56:45;;;;;;;2.63;1.60;;;14.50;99.90;;;14.69;100.00;99394.28;5147879;28;20039;-82
2023/03/24 03:59:45;;;;;;;2.55;1.70;;;14.50;99.90;;;14.68;100.00;99396.91;5144205;28;20054;-80
2023/03/24 04:02:40;;;;;;;3.08;1.80;;;14.50;99.90;;;14.62;100.00;99397.81;5144649;28;20428;-82
2023/03/24 04:05:28;;;;;;;2.25;1.60;;;14.40;99.90;;;14.61;100.00;99398.69;5148747;28;20058;-82
2023/03/24 04:08:24;;;;;;;3.60;1.70;;;14.40;99.90;;;14.60;100.00;99397.78;5171473;28;20047;-81
2023/03/24 04:11:22;;;;;;;1.83;1.40;;;14.40;99.90;;;14.59;100.00;99395.16;5149119;28;20103;-81
2023/03/24 04:15:10;;;;;;;1.65;1.30;;;14.40;99.90;;;14.58;100.00;99393.44;5153342;28;20055;-82
2023/03/24 04:18:32;;;;;;;1.98;1.30;;;14.40;99.90;;;14.59;100.00;99395.16;5149516;28;20149;-81
2023/03/24 04:21:27;;;;;;;2.47;1.83;;;14.40;99.90;;;14.62;100.00;99396.06;5154558;28;20415;-82
2023/03/24 04:24:16;;;;;;;2.78;1.48;;;14.40;99.90;;;14.59;100.00;99400.41;5150959;28;20046;-82
2023/03/24 04:26:59;;;;;;;1.35;1.25;;;14.40;99.90;;;14.59;100.00;99400.41;5150004;28;20051;-82
2023/03/24 04:29:41;;;;;;;2.25;1.50;;;14.40;99.90;;;14.60;100.00;99418.75;5146741;28;20049;-82
2023/03/24 04:32:24;;;;;;;2.08;1.30;;;14.40;99.90;;;14.61;100.00;99411.81;5144828;28;20066;-81
2023/03/24 04:35:00;;;;;;;2.22;1.50;;;14.40;99.90;;;14.61;100.00;99409.19;5166388;28;20046;-82
2023/03/24 04:37:57;;;;;;;2.10;1.35;;;14.40;99.90;;;14.61;100.00;99409.19;5151940;28;20051;-82
2023/03/24 04:40:40;;;;;;;1.70;1.38;;;14.40;99.90;;;14.61;100.00;99415.28;5149420;28;20409;-82
2023/03/24 04:43:17;;;;;;;1.52;1.30;;;14.40;99.90;;;14.62;100.00;99411.78;5153139;28;20070;-81
2023/03/24 04:45:50;;;;;;;1.88;1.30;;;14.40;99.90;;;14.62;100.00;99408.28;5152391;28;20066;-82
2023/03/24 04:48:43;;;;;;;2.03;1.20;;;14.40;99.90;;;14.62;100.00;99410.91;5157910;28;20143;-83
2023/03/24 04:51:32;;;;;;;1.52;1.10;;;14.40;99.90;;;14.64;100.00;99414.41;5156030;28;20047;-82
2023/03/24 04:54:21;;;;;;;1.70;1.17;;;14.40;99.90;;;14.64;100.00;99424.88;5165151;28;20051;-81
2023/03/24 04:56:58;;;;;;;1.52;1.10;;;14.50;99.90;;;14.66;100.00;99429.22;5157014;28;20520;-81
2023/03/24 04:59:35;;;;;;;2.90;1.35;;;14.50;99.90;;;14.68;100.00;99428.38;5150045;28;20047;-83
2023/03/24 05:02:10;;;;;;;1.23;0.98;;;14.50;99.90;;;14.71;100.00;99431.84;5165534;28;20038;-83
2023/03/24 05:04:43;;;;;;;1.88;1.30;;;14.50;99.90;;;14.68;100.00;99437.13;5150025;28;20043;-81
2023/03/24 05:07:26;;;;;;;1.58;1.23;;;14.50;99.90;;;14.65;100.00;99443.22;5156529;28;20043;-81
2023/03/24 05:10:03;;;;;;;1.55;1.23;;;14.50;99.90;;;14.62;100.00;99474.72;5149522;28;20063;-82
2023/03/24 05:12:44;;;;;;;2.58;1.40;;;14.50;99.90;;;14.59;100.00;99523.66;5157922;28;20046;-82
2023/03/24 05:15:31;;;;;;;2.85;1.20;;;14.50;99.90;;;14.47;100.00;99521.06;5150310;28;20051;-82
2023/03/24 05:18:19;;;;;;;0.98;0.90;;;14.30;99.90;;;14.28;100.00;99499.19;5151678;28;20076;-82
2023/03/24 05:20:53;;;;;;;2.50;0.85;;;14.20;99.90;;;14.09;100.00;99520.19;5152294;28;20045;-82
2023/03/24 05:23:27;;;;;;;1.60;0.95;;;14.10;99.90;;;13.97;100.00;99524.53;5169080;28;20043;-82
2023/03/24 05:26:00;;;;;;;1.35;0.80;;;13.90;99.90;;;13.84;100.00;99521.03;5177664;28;20042;-83
2023/03/24 05:28:35;;;;;;;1.00;0.90;;;13.70;99.90;;;13.77;100.00;99538.47;5166183;28;20039;-83
2023/03/24 05:31:08;;;;;;;1.30;0.75;;;13.70;99.90;;;13.70;100.00;99541.97;5155362;28;20050;-83
2023/03/24 05:33:56;;;;;;;1.30;0.73;;;13.60;99.90;;;13.61;100.00;99543.66;5157362;28;20047;-83
2023/03/24 05:36:31;;;;;;;3.15;1.00;;;13.50;99.90;;;13.56;100.00;99543.66;5142530;28;20392;-82
2023/03/24 05:39:04;;;;;;;2.35;0.55;;;13.50;99.90;;;13.50;100.00;99549.78;5160474;28;20078;-82
2023/03/24 05:41:47;;;;;;;3.05;0.90;;;13.40;99.90;;;13.44;100.00;99557.59;5172352;28;20115;-81
2023/03/24 05:44:19;;;;;;;2.40;0.90;;;13.30;99.90;;;13.35;100.00;99557.53;5150423;28;20047;-83
2023/03/24 05:47:04;;;;;;;2.83;1.10;;;13.30;99.90;;;13.28;100.00;99547.91;5165315;28;20114;-83
2023/03/24 05:49:37;;;;;;;2.30;0.90;;;13.20;99.90;;;13.23;100.00;99552.25;5150135;28;20043;-82
2023/03/24 05:52:14;;;;;;;1.83;1.05;;;13.10;99.90;;;13.16;100.00;99538.25;5148762;28;20039;-82
2023/03/24 05:54:50;;;;;;;2.47;1.10;;;13.10;99.90;;;13.12;100.00;99554.81;5164898;28;20042;-82
2023/03/24 05:57:30;;;;;;;2.08;1.10;;;13.10;99.90;;;13.15;100.00;99556.56;5145763;28;20057;-82
2023/03/24 06:00:22;;;;;;;1.65;1.00;;;13.10;99.90;;;13.14;100.00;99550.44;5153876;28;20047;-82
2023/03/24 06:03:03;;;;;;;1.08;0.95;;;13.00;99.90;;;13.11;100.00;99563.53;5171509;28;20035;-83
2023/03/24 06:05:46;;;;;;;2.67;1.25;;;13.00;99.90;;;13.13;100.00;99577.47;5154503;28;20038;-82
2023/03/24 06:08:23;;;;;;;;;;;13.10;99.90;;;13.14;100.00;99579.22;5162882;28;20085;-82
2023/03/24 06:11:01;;;;;;;3.05;1.00;;;13.00;99.90;;;13.16;100.00;99592.31;5148608;28;19922;-82
2023/03/24 06:13:33;;;;;;;2.20;1.00;;;13.10;99.90;;;13.15;100.00;99604.53;5155055;28;20290;-82
2023/03/24 06:16:08;;;;;;;2.20;1.10;;;13.10;99.90;;;13.18;100.00;99616.75;5162478;28;20040;-82
2023/03/24 06:18:51;;;;;;;1.95;1.00;;;13.10;99.90;;;13.19;100.00;99621.13;5149005;28;20074;-82
2023/03/24 06:21:49;;;;;;;2.20;1.15;;;13.10;99.90;;;13.16;100.00;99626.31;5152033;28;20102;-83
2023/03/24 06:24:24;;;;;;;1.88;1.08;;;13.10;99.90;;;13.11;100.00;99628.06;5153592;28;20039;-82
2023/03/24 06:27:01;;;;;;;3.25;1.35;;;13.00;99.90;;;13.02;100.00;99618.41;5167178;28;20102;-82
2023/03/24 06:29:41;;;;;;;4.00;1.60;;;13.00;99.90;;;12.99;100.00;99626.25;5146138;28;20055;-82
2023/03/24 06:32:13;;;;;;;3.45;1.30;;;12.90;99.90;;;12.90;100.00;99619.19;5158170;28;20039;-82
2023/03/24 06:34:47;;;;;;;1.95;0.90;;;12.80;99.90;;;12.89;100.00;99624.41;5156524;28;20059;-83
2023/03/24 06:37:37;;;;;;;1.55;0.90;;;12.80;99.90;;;12.81;100.00;99619.13;5145553;28;20082;-82
2023/03/24 06:40:16;;;;;;;5.07;1.10;;;12.80;99.90;;;12.83;100.00;99637.44;5159242;28;20039;-81
2023/03/24 06:42:55;;;;;;;3.50;1.15;;;12.70;99.90;;;12.80;100.00;99647.91;5149909;28;20047;-83
2023/03/24 06:45:27;;;;;;;2.90;1.00;;;12.70;99.90;;;12.86;100.00;99647.94;5147123;28;20043;-81
2023/03/24 06:47:59;;;;;;;1.52;1.00;;;12.70;99.90;;;12.93;100.00;99661.06;5141616;28;20058;-82
2023/03/24 06:50:34;;;;;;;7.95;1.60;;;12.80;99.90;;;12.95;100.00;99669.78;5155536;28;20055;-82
2023/03/24 06:53:10;;;;;;;5.18;1.20;;;12.80;99.90;;;12.97;100.00;99667.19;5161722;28;20050;-82
2023/03/24 06:55:46;;;;;;;2.92;0.95;;;12.90;99.90;;;12.94;100.00;99673.28;5157700;28;20476;-82
2023/03/24 06:58:19;;;;;;;3.03;1.00;;;12.90;99.90;;;12.91;100.00;99701.13;5147611;28;20187;-81
2023/03/24 07:01:02;;;;;;;3.45;1.10;;;12.80;99.90;;;12.88;100.00;99695.91;5141485;28;20061;-82
2023/03/24 07:03:41;;;;;;;2.95;1.40;;;12.80;99.90;;;12.85;100.00;99688.91;5146207;28;20460;-86
2023/03/24 07:06:33;;;;;;;3.15;0.93;;;12.80;99.90;;;12.82;100.00;99696.72;5130798;28;20513;-87
2023/03/24 07:09:14;;;;;;;4.65;1.13;;;12.80;99.90;;;12.81;100.00;99689.75;5142999;28;20051;-88
2023/03/24 07:11:47;;;;;;;3.83;1.25;;;12.80;99.90;;;12.79;100.00;99694.09;5147526;28;20069;-87
2023/03/24 07:14:24;;;;;;;3.50;1.10;;;12.70;99.90;;;12.76;100.00;99700.16;5147467;28;20058;-87
2023/03/24 07:16:58;;;;;;;5.85;1.30;;;12.70;99.90;;;12.79;100.00;99703.69;5143510;28;20077;-86
2023/03/24 07:19:46;;;;;;;5.32;1.60;;;12.70;99.90;;;12.73;100.00;99726.28;5150714;28;20055;-86
2023/03/24 07:22:39;;;;;;;4.65;1.20;;;12.70;99.90;;;12.92;100.00;99722.09;5144945;28;20066;-91
2023/03/24 07:25:46;;;;;;;2.55;1.10;;;12.80;99.90;;;13.05;100.00;99712.59;5149671;28;20039;-90
2023/03/24 07:28:29;;;;;;;5.80;1.40;;;12.90;99.90;;;12.99;100.00;99717.78;5146810;28;20074;-91
2023/03/24 07:31:05;;;;;;;3.88;1.10;;;12.90;99.90;;;12.90;100.00;99730.78;5162564;28;20051;-91
2023/03/24 07:33:38;;;;;;;3.58;1.50;;;12.90;99.90;;;12.86;100.00;99734.25;5170174;28;20066;-90
2023/03/24 07:36:11;;;;;;;6.20;1.42;;;12.80;99.90;;;12.79;100.00;99735.06;5149900;28;20286;-90
2023/03/24 07:38:45;;;;;;;3.67;1.30;;;12.80;99.90;;;12.72;100.00;99744.59;5162334;28;20070;-90
2023/03/24 07:41:25;;;;;;;7.90;1.70;;;12.70;99.90;;;12.73;100.00;99751.56;5146580;28;20517;-91
2023/03/24 07:44:04;;;;;;;5.47;1.48;;;12.70;99.90;;;12.71;100.00;99756.78;5164118;28;20070;-91
2023/03/24 07:46:44;;;;;;;4.05;1.40;;;12.60;99.90;;;12.72;100.00;99775.97;5168418;28;20043;-91
2023/03/24 07:49:16;;;;;;;4.45;1.30;;;12.60;99.90;;;12.70;100.00;99762.84;5136392;28;20094;-92
2023/03/24 07:51:51;;;;;;;1.70;1.05;;;12.60;99.90;;;12.81;100.00;99754.25;5158270;28;20089;-80
2023/03/24 07:54:34;;;;;;;2.58;0.80;;;12.70;99.90;;;13.22;100.00;99762.47;5157775;28;20052;-84
2023/03/24 07:57:06;;;;;;;2.45;0.85;;;13.10;99.90;;;13.74;100.00;99763.69;5156965;28;20054;-81
2023/03/24 07:59:40;;;;;;;2.47;1.50;;;13.70;99.90;;;14.09;100.00;99769.13;5152002;28;20505;-89
2023/03/24 08:02:21;;;;;;;1.48;0.90;;;14.00;99.90;;;14.11;100.00;99769.13;5151500;28;20039;-89
2023/03/24 08:05:18;;;;;;;2.38;0.93;;;14.00;99.90;;;13.98;100.00;99783.91;5127257;28;20050;-90
2023/03/24 08:07:59;;;;;;;4.47;1.40;;;13.90;99.90;;;13.82;100.00;99785.59;5141444;28;20049;-89
2023/03/24 08:10:31;;;;;;;2.97;1.15;;;13.80;99.90;;;13.66;100.00;99782.84;5158166;28;20090;-89
2023/03/24 08:13:04;;;;;;;4.70;1.77;;;13.60;99.90;;;13.54;100.00;99778.41;5165247;28;20050;-88
2023/03/24 08:15:38;;;;;;;1.55;1.02;;;13.50;99.90;;;13.44;100.00;99768.75;5165471;28;20119;-89
2023/03/24 08:18:12;;;;;;;4.03;1.20;;;13.40;99.90;;;13.41;100.00;99774.81;5142281;28;20057;-89
2023/03/24 08:20:44;;;;;;;4.43;1.20;;;13.30;99.90;;;13.36;100.00;99773.03;5147964;28;20043;-90
2023/03/24 08:23:17;;;;;;;4.15;1.20;;;13.20;99.90;;;13.33;100.00;99776.50;5150981;28;20039;-90
2023/03/24 08:25:50;;;;;;;4.25;1.40;;;13.20;99.90;;;13.38;100.00;99766.09;5165585;28;20050;-90
2023/03/24 08:28:22;;;;;;;4.28;1.10;;;13.20;99.90;;;13.45;100.00;99760.03;5140387;28;20421;-88
2023/03/24 08:30:55;;;;;;;4.10;1.48;;;13.20;99.90;;;13.50;100.00;99753.09;5165610;28;20523;-89
2023/03/24 08:33:28;;;;;;;3.67;1.10;;;13.30;99.90;;;13.61;100.00;99759.25;5166440;28;20046;-89
2023/03/24 08:36:00;;;;;;;4.60;1.10;;;13.30;99.90;;;13.73;100.00;99759.31;5162967;28;20045;-89
2023/03/24 08:38:33;;;;;;;2.97;1.17;;;13.40;99.90;;;13.91;100.00;99752.44;5162855;28;20043;-88
2023/03/24 08:41:07;;;;;;;2.38;1.10;;;13.50;99.90;;;14.16;100.00;99756.03;5150621;28;20039;-91
2023/03/24 08:43:39;;;;;;;2.92;1.17;;;13.70;99.90;;;14.34;100.00;99761.31;5158277;28;20054;-89
2023/03/24 08:46:14;;;;;;;3.63;1.38;;;13.80;99.90;;;14.39;100.00;99751.72;5146442;28;20565;-92
2023/03/24 08:48:46;;;;;;;4.65;1.20;;;14.00;99.90;;;14.45;100.00;99758.75;5151711;28;20683;-91
2023/03/24 08:51:18;;;;;;;4.72;1.30;;;14.00;99.90;;;14.47;100.00;99759.66;5153118;28;20527;-89
2023/03/24 08:53:51;;;;;;;4.45;1.20;;;14.10;99.90;;;14.98;100.00;99765.84;5146746;28;20042;-88
2023/03/24 08:56:24;;;;;;;5.22;1.20;;;14.40;99.90;;;16.31;97.30;99752.47;5153470;28;20042;-89
2023/03/24 08:58:58;;;;;;;1.77;1.10;;;15.10;99.90;;;17.62;91.74;99762.91;5145420;28;20047;-89
2023/03/24 09:01:32;;;;;;;3.90;1.10;;;16.00;99.90;;;18.75;86.33;99776.50;5170646;28;20146;-88
2023/03/24 09:04:05;;;;;;;3.47;1.05;;;17.00;99.90;;;19.82;82.00;99768.56;5141825;28;20149;-89
2023/03/24 09:06:37;;;;;;;3.80;0.90;;;18.00;99.90;;;20.69;77.89;99785.34;5169568;28;20047;-90
2023/03/24 09:09:09;;;;;;;3.58;1.23;;;18.90;98.40;;;21.11;74.65;99783.44;5159537;28;20079;-88
2023/03/24 09:11:41;;;;;;;3.17;1.48;;;19.60;95.70;;;21.28;72.40;99801.59;5167863;28;20054;-90
2023/03/24 09:14:14;;;;;;;4.35;1.20;;;19.90;93.50;;;21.16;71.42;99802.75;5149794;28;20416;-91
2023/03/24 09:16:48;;;;;;;2.60;0.90;;;20.10;91.60;;;20.62;70.84;99799.63;5148867;28;20051;-90
2023/03/24 09:19:20;;;;;;;;;;;19.90;90.30;;;19.94;70.82;99808.88;5166789;28;20054;-90
2023/03/24 09:21:52;;;;;;;3.50;1.00;;;19.40;88.80;;;19.62;71.57;99808.59;5258751;23;20400;-59
2023/03/24 09:24:25;;;;;;;3.58;0.93;;;19.10;89.50;;;19.19;72.21;99815.47;5139819;28;20503;-58
2023/03/24 09:26:57;;;;;;;2.20;0.80;;;18.70;90.00;;;18.68;72.50;99807.41;5142958;28;20109;-59
2023/03/24 09:29:29;;;;;;;3.20;1.08;;;18.30;89.60;;;18.24;73.11;99793.88;5143263;28;20415;-59
2023/03/24 09:32:03;;;;;;;6.15;1.40;;;17.90;89.60;;;17.68;73.00;99803.28;5144121;28;20515;-59
2023/03/24 09:34:37;;;;;;;3.63;1.23;;;17.40;89.20;;;17.28;74.67;99806.28;5143454;28;20518;-58
2023/03/24 09:37:09;;;;;;;4.40;0.95;;;17.00;90.50;;;17.15;75.84;99796.69;5143702;28;20125;-58
2023/03/24 09:39:41;;;;;;;4.43;1.10;;;16.80;91.40;;;16.95;76.05;99788.94;5142922;28;20125;-60
2023/03/24 09:42:21;;;;;;;5.85;1.30;;;16.60;91.60;;;16.87;77.57;99791.63;5143983;28;20539;-60
2023/03/24 09:44:57;;;;;;;5.38;1.50;;;16.50;92.50;;;16.91;76.52;99793.38;5143597;28;20046;-59
2023/03/24 09:47:36;;;;;;;4.05;1.10;;;16.50;92.20;;;17.02;77.35;99802.06;5143304;28;20407;-60
2023/03/24 09:50:18;;;;;;;5.18;1.23;;;16.60;92.70;;;17.30;76.15;99801.84;5144029;28;20129;-60
2023/03/24 09:52:54;;;;;;;8.10;1.73;;;16.80;92.50;;;17.36;76.23;99797.41;5135604;28;20038;-59
2023/03/24 09:55:28;;;;;;;5.10;1.08;;;16.90;92.30;;;17.42;73.90;99807.03;5143419;28;20045;-59
2023/03/24 09:58:07;;;;;;;3.88;1.20;;;17.00;91.00;;;17.46;73.17;99803.44;5143201;28;20038;-59
2023/03/24 10:00:40;;;;;;;5.10;1.33;;;17.00;90.40;;;17.61;74.97;99805.97;5143459;28;20050;-59
2023/03/24 10:03:21;;;;;;;2.90;1.00;;;17.10;91.40;;;17.98;73.11;99797.69;5143627;28;20046;-59
2023/03/24 10:05:58;;;;;;;4.13;1.02;;;17.40;90.60;;;18.30;72.97;99805.22;5143121;28;20050;-59
2023/03/24 10:08:35;;;;;;;7.47;1.30;;;17.70;90.50;;;18.47;71.22;99801.53;5143367;28;20046;-59
2023/03/24 10:11:21;;;;;;;1.52;0.85;;;17.90;89.30;;;18.52;70.72;99803.22;5136674;28;20526;-59
2023/03/24 10:14:08;;;;;;;4.00;1.10;;;17.90;88.00;;;18.47;71.40;99810.31;5143185;28;20049;-58
2023/03/24 10:16:50;;;;;;;4.80;1.00;;;18.00;88.00;;;18.48;71.20;99814.69;5142827;28;20047;-58
2023/03/24 10:19:39;;;;;;;5.05;1.13;;;18.00;87.50;;;18.59;70.77;99807.50;5143107;28;20455;-58
2023/03/24 10:22:20;;;;;;;3.17;0.77;;;18.10;87.20;;;18.65;69.66;99812.72;5143098;28;20038;-60
2023/03/24 10:24:59;;;;;;;4.47;0.90;;;18.10;85.80;;;18.78;70.46;99817.81;5142855;28;20054;-60
2023/03/24 10:27:37;;;;;;;2.08;0.90;;;18.30;86.50;;;19.02;70.93;99827.16;5142994;28;20050;-60
2023/03/24 10:30:17;;;;;;;2.80;1.00;;;18.40;87.00;;;19.27;69.54;99822.38;5134958;28;20049;-58
2023/03/24 10:32:50;;;;;;;3.58;0.90;;;18.60;85.30;;;19.56;67.55;99825.44;5142916;28;20039;-59
2023/03/24 10:35:28;;;;;;;4.78;0.95;;;18.80;83.70;;;19.57;64.71;99827.16;5142910;28;20046;-58
2023/03/24 10:38:04;;;;;;;5.50;1.30;;;18.90;79.20;;;19.31;65.21;99832.03;5142598;28;20049;-59
2023/03/24 10:40:36;;;;;;;3.88;0.98;;;18.80;79.20;;;18.99;64.34;99833.38;5142859;28;20512;-58
2023/03/24 10:43:08;;;;;;;4.43;1.10;;;18.60;77.30;;;18.67;64.13;99837.34;5143049;28;20043;-60
2023/03/24 10:45:44;;;;;;;4.15;1.25;;;18.30;77.20;;;18.41;65.02;99823.56;5142652;28;20416;-59
2023/03/24 10:48:36;;;;;;;3.92;1.02;;;18.10;77.60;;;18.25;66.69;99822.88;5143161;28;20050;-60
2023/03/24 10:51:16;;;;;;;2.90;0.70;;;17.90;80.10;;;18.33;68.40;99833.34;5138139;28;20072;-60
2023/03/24 10:53:49;;;;;;;1.85;0.60;;;17.90;81.60;;;18.34;68.61;99837.72;5146614;28;20094;-58
2023/03/24 10:56:41;;;;;;;4.38;0.73;;;17.90;81.80;;;18.63;68.29;99845.28;5146658;28;20055;-59
2023/03/24 10:59:26;;;;;;;1.42;0.70;;;18.10;82.10;;;18.93;69.11;99844.03;5140495;28;20050;-59
2023/03/24 11:02:16;;;;;;;3.20;0.88;;;18.30;83.10;;;19.27;67.81;99833.81;5146695;28;20046;-58
2023/03/24 11:04:55;;;;;;;2.22;0.93;;;18.60;82.10;;;19.60;66.65;99843.00;5146264;28;20102;-59
2023/03/24 11:07:34;;;;;;;1.17;0.60;;;18.90;80.90;;;19.70;65.78;99844.59;5146903;28;20519;-61